sensor_id;sensor_type;location;lat;lon;timestamp;temperature;humidity
56184;DHT22;42086;53.170;6.980;2022-10-23T00:01:29;10.90;99.90
56184;DHT22;42086;53.170;6.980;2022-10-23T00:03:57;10.90;99.90
56184;DHT22;42086;53.170;6.980;2022-10-23T00:06:24;10.80;99.90
56184;DHT22;42086;53.170;6.980;2022-10-23T00:08:50;10.70;99.90
56184;DHT22;42086;53.170;6.980;2022-10-23T00:11:19;10.80;99.90
56184;DHT22;42086;53.170;6.980;2022-10-23T00:13:45;10.90;99.90
56184;DHT22;42086;53.170;6.980;2022-10-23T00:16:11;10.90;99.90
56184;DHT22;42086;53.170;6.980;2022-10-23T00:18:38;10.90;99.90
56184;DHT22;42086;53.170;6.980;2022-10-23T00:21:04;10.80;99.90
56184;DHT22;42086;53.170;6.980;2022-10-23T00:23:30;10.80;99.90
56184;DHT22;42086;53.170;6.980;2022-10-23T00:25:56;10.90;99.90
56184;DHT22;42086;53.170;6.980;2022-10-23T00:28:22;10.90;99.90
56184;DHT22;42086;53.170;6.980;2022-10-23T00:30:47;10.90;99.90
56184;DHT22;42086;53.170;6.980;2022-10-23T00:33:13;10.90;99.90
56184;DHT22;42086;53.170;6.980;2022-10-23T00:35:40;10.90;99.90
56184;DHT22;42086;53.170;6.980;2022-10-23T00:38:06;10.90;99.90
56184;DHT22;42086;53.170;6.980;2022-10-23T00:40:32;11.00;99.90
56184;DHT22;42086;53.170;6.980;2022-10-23T00:42:58;11.00;99.90
56184;DHT22;42086;53.170;6.980;2022-10-23T00:45:25;11.00;99.90
56184;DHT22;42086;53.170;6.980;2022-10-23T00:47:53;11.00;99.90
56184;DHT22;42086;53.170;6.980;2022-10-23T00:50:22;11.00;99.90
56184;DHT22;42086;53.170;6.980;2022-10-23T00:52:50;11.30;99.90
56184;DHT22;42086;53.170;6.980;2022-10-23T00:55:19;11.00;99.90
56184;DHT22;42086;53.170;6.980;2022-10-23T00:57:48;10.90;99.90
56184;DHT22;42086;53.170;6.980;2022-10-23T01:00:17;10.90;99.90
56184;DHT22;42086;53.170;6.980;2022-10-23T01:02:44;11.00;99.90
56184;DHT22;42086;53.170;6.980;2022-10-23T01:05:10;11.00;99.90
56184;DHT22;42086;53.170;6.980;2022-10-23T01:15:47;11.00;99.90
56184;DHT22;42086;53.170;6.980;2022-10-23T01:18:30;11.10;99.90
56184;DHT22;42086;53.170;6.980;2022-10-23T01:21:30;11.10;99.90
56184;DHT22;42086;53.170;6.980;2022-10-23T01:29:24;11.10;99.90
56184;DHT22;42086;53.170;6.980;2022-10-23T01:32:03;11.20;99.90
56184;DHT22;42086;53.170;6.980;2022-10-23T01:35:52;11.10;99.90
56184;DHT22;42086;53.170;6.980;2022-10-23T01:38:10;11.10;99.90
56184;DHT22;42086;53.170;6.980;2022-10-23T01:41:02;11.10;99.90
56184;DHT22;42086;53.170;6.980;2022-10-23T01:43:43;11.10;99.90
56184;DHT22;42086;53.170;6.980;2022-10-23T01:46:13;11.00;99.90
56184;DHT22;42086;53.170;6.980;2022-10-23T01:48:40;11.10;99.90
56184;DHT22;42086;53.170;6.980;2022-10-23T01:51:12;11.10;99.90
56184;DHT22;42086;53.170;6.980;2022-10-23T01:53:41;11.10;99.90
56184;DHT22;42086;53.170;6.980;2022-10-23T01:56:10;11.10;99.90
56184;DHT22;42086;53.170;6.980;2022-10-23T01:58:37;11.10;99.90
56184;DHT22;42086;53.170;6.980;2022-10-23T02:01:06;11.00;99.90
56184;DHT22;42086;53.170;6.980;2022-10-23T02:03:34;11.10;99.90
56184;DHT22;42086;53.170;6.980;2022-10-23T02:06:01;11.10;99.90
56184;DHT22;42086;53.170;6.980;2022-10-23T02:08:27;11.10;99.90
56184;DHT22;42086;53.170;6.980;2022-10-23T02:11:06;11.10;99.90
56184;DHT22;42086;53.170;6.980;2022-10-23T02:13:44;11.00;99.90
56184;DHT22;42086;53.170;6.980;2022-10-23T02:18:43;11.00;99.90
56184;DHT22;42086;53.170;6.980;2022-10-23T02:21:18;11.10;99.90
56184;DHT22;42086;53.170;6.980;2022-10-23T02:24:03;11.10;99.90
56184;DHT22;42086;53.170;6.980;2022-10-23T02:26:37;11.10;99.90
56184;DHT22;42086;53.170;6.980;2022-10-23T02:29:16;11.10;99.90
56184;DHT22;42086;53.170;6.980;2022-10-23T02:31:43;11.10;99.90
56184;DHT22;42086;53.170;6.980;2022-10-23T02:34:09;11.10;99.90
56184;DHT22;42086;53.170;6.980;2022-10-23T02:36:34;11.00;99.90
56184;DHT22;42086;53.170;6.980;2022-10-23T02:39:00;11.10;99.90
56184;DHT22;42086;53.170;6.980;2022-10-23T02:41:40;11.10;99.90
56184;DHT22;42086;53.170;6.980;2022-10-23T02:50:16;11.10;99.90
56184;DHT22;42086;53.170;6.980;2022-10-23T02:53:15;11.00;99.90
56184;DHT22;42086;53.170;6.980;2022-10-23T02:59:00;11.00;99.90
56184;DHT22;42086;53.170;6.980;2022-10-23T03:01:37;10.90;99.90
56184;DHT22;42086;53.170;6.980;2022-10-23T03:04:04;10.90;99.90
56184;DHT22;42086;53.170;6.980;2022-10-23T03:06:31;11.00;99.90
56184;DHT22;42086;53.170;6.980;2022-10-23T03:09:00;11.10;99.90
56184;DHT22;42086;53.170;6.980;2022-10-23T03:11:27;11.10;99.90
56184;DHT22;42086;53.170;6.980;2022-10-23T03:13:53;11.00;99.90
56184;DHT22;42086;53.170;6.980;2022-10-23T03:16:19;11.10;99.90
56184;DHT22;42086;53.170;6.980;2022-10-23T03:18:44;11.10;99.90
56184;DHT22;42086;53.170;6.980;2022-10-23T03:21:10;11.10;99.90
56184;DHT22;42086;53.170;6.980;2022-10-23T03:23:35;11.20;99.90
56184;DHT22;42086;53.170;6.980;2022-10-23T03:26:01;11.20;99.90
56184;DHT22;42086;53.170;6.980;2022-10-23T03:28:27;11.20;99.90
56184;DHT22;42086;53.170;6.980;2022-10-23T03:30:52;11.00;99.90
56184;DHT22;42086;53.170;6.980;2022-10-23T03:33:18;10.90;99.90
56184;DHT22;42086;53.170;6.980;2022-10-23T03:35:44;10.90;99.90
56184;DHT22;42086;53.170;6.980;2022-10-23T03:38:10;11.10;99.90
56184;DHT22;42086;53.170;6.980;2022-10-23T03:40:35;11.00;99.90
56184;DHT22;42086;53.170;6.980;2022-10-23T03:43:01;11.10;99.90
56184;DHT22;42086;53.170;6.980;2022-10-23T03:45:27;11.10;99.90
56184;DHT22;42086;53.170;6.980;2022-10-23T03:47:53;11.20;99.90
56184;DHT22;42086;53.170;6.980;2022-10-23T03:50:19;11.30;99.90
56184;DHT22;42086;53.170;6.980;2022-10-23T03:52:44;11.30;99.90
56184;DHT22;42086;53.170;6.980;2022-10-23T03:55:10;11.30;99.90
56184;DHT22;42086;53.170;6.980;2022-10-23T03:57:37;11.40;99.90
56184;DHT22;42086;53.170;6.980;2022-10-23T04:00:04;11.30;99.90
56184;DHT22;42086;53.170;6.980;2022-10-23T04:02:31;11.30;99.90
56184;DHT22;42086;53.170;6.980;2022-10-23T04:04:56;11.20;99.90
56184;DHT22;42086;53.170;6.980;2022-10-23T04:07:22;11.20;99.90
56184;DHT22;42086;53.170;6.980;2022-10-23T04:09:48;11.20;99.90
56184;DHT22;42086;53.170;6.980;2022-10-23T04:12:13;11.20;99.90
56184;DHT22;42086;53.170;6.980;2022-10-23T04:14:39;11.10;99.90
56184;DHT22;42086;53.170;6.980;2022-10-23T04:17:05;11.10;99.90
56184;DHT22;42086;53.170;6.980;2022-10-23T04:19:30;11.00;99.90
56184;DHT22;42086;53.170;6.980;2022-10-23T04:21:56;11.00;99.90
56184;DHT22;42086;53.170;6.980;2022-10-23T04:24:23;11.00;99.90
56184;DHT22;42086;53.170;6.980;2022-10-23T04:26:49;10.90;99.90
56184;DHT22;42086;53.170;6.980;2022-10-23T04:29:16;11.00;99.90
56184;DHT22;42086;53.170;6.980;2022-10-23T04:31:42;10.90;99.90
56184;DHT22;42086;53.170;6.980;2022-10-23T04:34:07;11.00;99.90
56184;DHT22;42086;53.170;6.980;2022-10-23T04:36:33;11.00;99.90
56184;DHT22;42086;53.170;6.980;2022-10-23T04:38:59;11.00;99.90
56184;DHT22;42086;53.170;6.980;2022-10-23T04:41:25;11.00;99.90
56184;DHT22;42086;53.170;6.980;2022-10-23T04:43:50;10.90;99.90
56184;DHT22;42086;53.170;6.980;2022-10-23T04:46:16;11.00;99.90
56184;DHT22;42086;53.170;6.980;2022-10-23T04:48:42;11.00;99.90
56184;DHT22;42086;53.170;6.980;2022-10-23T04:51:08;11.00;99.90
56184;DHT22;42086;53.170;6.980;2022-10-23T04:53:34;11.00;99.90
56184;DHT22;42086;53.170;6.980;2022-10-23T04:56:00;11.00;99.90
56184;DHT22;42086;53.170;6.980;2022-10-23T04:58:27;11.00;99.90
56184;DHT22;42086;53.170;6.980;2022-10-23T05:00:53;10.90;99.90
56184;DHT22;42086;53.170;6.980;2022-10-23T05:03:21;10.90;99.90
56184;DHT22;42086;53.170;6.980;2022-10-23T05:05:47;10.90;99.90
56184;DHT22;42086;53.170;6.980;2022-10-23T05:08:13;10.80;99.90
56184;DHT22;42086;53.170;6.980;2022-10-23T05:10:39;10.90;99.90
56184;DHT22;42086;53.170;6.980;2022-10-23T05:13:06;11.00;99.90
56184;DHT22;42086;53.170;6.980;2022-10-23T05:15:31;10.90;99.90
56184;DHT22;42086;53.170;6.980;2022-10-23T05:18:13;10.90;99.90
56184;DHT22;42086;53.170;6.980;2022-10-23T05:20:40;10.90;99.90
56184;DHT22;42086;53.170;6.980;2022-10-23T05:23:08;11.00;99.90
56184;DHT22;42086;53.170;6.980;2022-10-23T05:25:35;11.00;99.90
56184;DHT22;42086;53.170;6.980;2022-10-23T05:28:01;11.10;99.90
56184;DHT22;42086;53.170;6.980;2022-10-23T05:30:27;11.10;99.90
56184;DHT22;42086;53.170;6.980;2022-10-23T05:32:53;11.10;99.90
56184;DHT22;42086;53.170;6.980;2022-10-23T05:35:21;11.10;99.90
56184;DHT22;42086;53.170;6.980;2022-10-23T05:37:50;11.00;99.90
56184;DHT22;42086;53.170;6.980;2022-10-23T05:40:17;11.00;99.90
56184;DHT22;42086;53.170;6.980;2022-10-23T05:42:42;11.10;99.90
56184;DHT22;42086;53.170;6.980;2022-10-23T05:45:08;11.00;99.90
56184;DHT22;42086;53.170;6.980;2022-10-23T05:47:34;11.00;99.90
56184;DHT22;42086;53.170;6.980;2022-10-23T05:50:00;11.00;99.90
56184;DHT22;42086;53.170;6.980;2022-10-23T05:52:26;11.00;99.90
56184;DHT22;42086;53.170;6.980;2022-10-23T05:54:51;11.00;99.90
56184;DHT22;42086;53.170;6.980;2022-10-23T05:57:18;11.00;99.90
56184;DHT22;42086;53.170;6.980;2022-10-23T05:59:44;11.00;99.90
56184;DHT22;42086;53.170;6.980;2022-10-23T06:02:09;11.00;99.90
56184;DHT22;42086;53.170;6.980;2022-10-23T06:04:35;11.00;99.90
56184;DHT22;42086;53.170;6.980;2022-10-23T06:07:02;11.00;99.90
56184;DHT22;42086;53.170;6.980;2022-10-23T06:09:28;11.00;99.90
56184;DHT22;42086;53.170;6.980;2022-10-23T06:11:54;11.00;99.90
56184;DHT22;42086;53.170;6.980;2022-10-23T06:14:20;11.00;99.90
56184;DHT22;42086;53.170;6.980;2022-10-23T06:16:46;11.00;99.90
56184;DHT22;42086;53.170;6.980;2022-10-23T06:19:12;11.00;99.90
56184;DHT22;42086;53.170;6.980;2022-10-23T06:21:39;11.00;99.90
56184;DHT22;42086;53.170;6.980;2022-10-23T06:24:06;11.00;99.90
56184;DHT22;42086;53.170;6.980;2022-10-23T06:26:32;10.90;99.90
56184;DHT22;42086;53.170;6.980;2022-10-23T06:28:58;10.90;99.90
56184;DHT22;42086;53.170;6.980;2022-10-23T06:31:24;10.90;99.90
56184;DHT22;42086;53.170;6.980;2022-10-23T06:33:56;10.90;99.90
56184;DHT22;42086;53.170;6.980;2022-10-23T06:36:23;10.90;99.90
56184;DHT22;42086;53.170;6.980;2022-10-23T06:38:48;10.90;99.90
56184;DHT22;42086;53.170;6.980;2022-10-23T06:41:16;11.00;99.90
56184;DHT22;42086;53.170;6.980;2022-10-23T06:43:42;11.00;99.90
56184;DHT22;42086;53.170;6.980;2022-10-23T06:46:08;11.10;99.90
56184;DHT22;42086;53.170;6.980;2022-10-23T06:48:35;11.10;99.90
56184;DHT22;42086;53.170;6.980;2022-10-23T06:51:06;11.20;99.90
56184;DHT22;42086;53.170;6.980;2022-10-23T06:53:32;11.30;99.90
56184;DHT22;42086;53.170;6.980;2022-10-23T06:55:59;11.40;99.90
56184;DHT22;42086;53.170;6.980;2022-10-23T06:58:25;11.40;99.90
56184;DHT22;42086;53.170;6.980;2022-10-23T07:00:51;11.50;99.90
56184;DHT22;42086;53.170;6.980;2022-10-23T07:03:17;11.50;99.90
56184;DHT22;42086;53.170;6.980;2022-10-23T07:05:43;11.50;99.90
56184;DHT22;42086;53.170;6.980;2022-10-23T07:08:13;11.50;99.90
56184;DHT22;42086;53.170;6.980;2022-10-23T07:10:39;11.60;99.90
56184;DHT22;42086;53.170;6.980;2022-10-23T07:13:09;11.60;99.90
56184;DHT22;42086;53.170;6.980;2022-10-23T07:15:35;11.80;99.90
56184;DHT22;42086;53.170;6.980;2022-10-23T07:18:01;11.70;99.90
56184;DHT22;42086;53.170;6.980;2022-10-23T07:20:27;11.80;99.90
56184;DHT22;42086;53.170;6.980;2022-10-23T07:22:54;11.80;99.90
56184;DHT22;42086;53.170;6.980;2022-10-23T07:25:20;11.80;99.90
56184;DHT22;42086;53.170;6.980;2022-10-23T07:27:46;12.20;99.90
56184;DHT22;42086;53.170;6.980;2022-10-23T07:30:13;12.00;99.90
56184;DHT22;42086;53.170;6.980;2022-10-23T07:32:39;12.00;99.90
56184;DHT22;42086;53.170;6.980;2022-10-23T07:35:05;12.10;99.90
56184;DHT22;42086;53.170;6.980;2022-10-23T07:37:31;12.10;99.90
56184;DHT22;42086;53.170;6.980;2022-10-23T07:39:57;12.20;99.90
56184;DHT22;42086;53.170;6.980;2022-10-23T07:42:23;12.20;99.90
56184;DHT22;42086;53.170;6.980;2022-10-23T07:44:48;12.30;99.90
56184;DHT22;42086;53.170;6.980;2022-10-23T07:47:14;12.30;99.90
56184;DHT22;42086;53.170;6.980;2022-10-23T07:49:40;12.40;99.90
56184;DHT22;42086;53.170;6.980;2022-10-23T07:52:06;12.40;99.90
56184;DHT22;42086;53.170;6.980;2022-10-23T07:54:32;12.40;99.90
56184;DHT22;42086;53.170;6.980;2022-10-23T07:56:58;12.50;99.90
56184;DHT22;42086;53.170;6.980;2022-10-23T07:59:25;12.60;99.90
56184;DHT22;42086;53.170;6.980;2022-10-23T08:01:51;12.50;99.90
56184;DHT22;42086;53.170;6.980;2022-10-23T08:04:17;12.60;99.90
56184;DHT22;42086;53.170;6.980;2022-10-23T08:06:44;12.60;99.90
56184;DHT22;42086;53.170;6.980;2022-10-23T08:09:09;12.70;99.90
56184;DHT22;42086;53.170;6.980;2022-10-23T08:11:35;12.70;99.90
56184;DHT22;42086;53.170;6.980;2022-10-23T08:14:02;12.80;99.90
56184;DHT22;42086;53.170;6.980;2022-10-23T08:16:30;12.80;99.90
56184;DHT22;42086;53.170;6.980;2022-10-23T08:18:56;12.80;99.90
56184;DHT22;42086;53.170;6.980;2022-10-23T08:21:22;12.80;99.90
56184;DHT22;42086;53.170;6.980;2022-10-23T08:23:48;12.90;99.90
56184;DHT22;42086;53.170;6.980;2022-10-23T08:26:14;13.00;99.90
56184;DHT22;42086;53.170;6.980;2022-10-23T08:28:40;13.00;99.90
56184;DHT22;42086;53.170;6.980;2022-10-23T08:31:08;13.10;99.90
56184;DHT22;42086;53.170;6.980;2022-10-23T08:33:34;13.20;99.90
56184;DHT22;42086;53.170;6.980;2022-10-23T08:36:00;13.20;99.90
56184;DHT22;42086;53.170;6.980;2022-10-23T08:38:25;13.30;99.90
56184;DHT22;42086;53.170;6.980;2022-10-23T08:40:51;13.40;99.90
56184;DHT22;42086;53.170;6.980;2022-10-23T08:43:24;13.40;99.90
56184;DHT22;42086;53.170;6.980;2022-10-23T08:46:14;13.50;99.90
56184;DHT22;42086;53.170;6.980;2022-10-23T08:48:50;13.60;99.90
56184;DHT22;42086;53.170;6.980;2022-10-23T08:51:28;13.70;99.90
56184;DHT22;42086;53.170;6.980;2022-10-23T08:54:15;13.70;99.90
56184;DHT22;42086;53.170;6.980;2022-10-23T08:57:08;13.80;99.90
56184;DHT22;42086;53.170;6.980;2022-10-23T08:59:39;13.90;99.90
56184;DHT22;42086;53.170;6.980;2022-10-23T09:02:22;14.00;99.90
56184;DHT22;42086;53.170;6.980;2022-10-23T09:04:51;14.10;99.90
56184;DHT22;42086;53.170;6.980;2022-10-23T09:17:07;14.50;99.90
56184;DHT22;42086;53.170;6.980;2022-10-23T09:19:26;14.60;99.90
56184;DHT22;42086;53.170;6.980;2022-10-23T09:21:53;14.70;99.90
56184;DHT22;42086;53.170;6.980;2022-10-23T09:24:22;14.60;99.90
56184;DHT22;42086;53.170;6.980;2022-10-23T09:26:50;14.60;99.90
56184;DHT22;42086;53.170;6.980;2022-10-23T09:29:28;14.80;99.90
56184;DHT22;42086;53.170;6.980;2022-10-23T09:31:59;14.80;99.90
56184;DHT22;42086;53.170;6.980;2022-10-23T09:34:27;15.00;99.90
56184;DHT22;42086;53.170;6.980;2022-10-23T09:36:59;15.10;99.90
56184;DHT22;42086;53.170;6.980;2022-10-23T09:39:28;15.30;99.90
56184;DHT22;42086;53.170;6.980;2022-10-23T09:41:54;15.40;99.90
56184;DHT22;42086;53.170;6.980;2022-10-23T09:44:29;15.50;99.90
56184;DHT22;42086;53.170;6.980;2022-10-23T09:46:59;15.60;99.90
56184;DHT22;42086;53.170;6.980;2022-10-23T09:49:33;15.70;99.90
56184;DHT22;42086;53.170;6.980;2022-10-23T09:52:22;15.70;99.90
56184;DHT22;42086;53.170;6.980;2022-10-23T09:55:00;15.80;99.90
56184;DHT22;42086;53.170;6.980;2022-10-23T09:57:43;15.90;99.90
56184;DHT22;42086;53.170;6.980;2022-10-23T10:00:23;16.00;99.90
56184;DHT22;42086;53.170;6.980;2022-10-23T10:02:58;16.10;99.90
56184;DHT22;42086;53.170;6.980;2022-10-23T10:05:29;16.10;99.90
56184;DHT22;42086;53.170;6.980;2022-10-23T10:07:59;16.10;99.90
56184;DHT22;42086;53.170;6.980;2022-10-23T10:10:34;16.20;99.90
56184;DHT22;42086;53.170;6.980;2022-10-23T10:16:25;16.20;99.90
56184;DHT22;42086;53.170;6.980;2022-10-23T10:22:34;16.10;99.90
56184;DHT22;42086;53.170;6.980;2022-10-23T10:24:46;16.20;99.90
56184;DHT22;42086;53.170;6.980;2022-10-23T10:30:22;16.30;99.90
56184;DHT22;42086;53.170;6.980;2022-10-23T10:35:50;16.60;99.90
56184;DHT22;42086;53.170;6.980;2022-10-23T10:38:41;16.60;99.90
56184;DHT22;42086;53.170;6.980;2022-10-23T10:43:59;16.80;99.90
56184;DHT22;42086;53.170;6.980;2022-10-23T10:46:43;17.10;99.90
56184;DHT22;42086;53.170;6.980;2022-10-23T10:52:06;17.40;99.90
56184;DHT22;42086;53.170;6.980;2022-10-23T10:57:41;17.40;99.90
56184;DHT22;42086;53.170;6.980;2022-10-23T11:00:18;17.20;99.90
56184;DHT22;42086;53.170;6.980;2022-10-23T11:02:45;17.20;99.90
56184;DHT22;42086;53.170;6.980;2022-10-23T11:05:33;17.30;99.90
56184;DHT22;42086;53.170;6.980;2022-10-23T11:10:42;17.20;99.90
56184;DHT22;42086;53.170;6.980;2022-10-23T11:15:50;17.20;99.90
56184;DHT22;42086;53.170;6.980;2022-10-23T11:18:25;17.20;99.90
56184;DHT22;42086;53.170;6.980;2022-10-23T11:31:51;17.20;99.90
56184;DHT22;42086;53.170;6.980;2022-10-23T11:37:18;17.20;99.90
56184;DHT22;42086;53.170;6.980;2022-10-23T11:48:20;17.10;99.90
56184;DHT22;42086;53.170;6.980;2022-10-23T12:01:42;17.00;99.90
56184;DHT22;42086;53.170;6.980;2022-10-23T12:06:41;17.00;99.90
56184;DHT22;42086;53.170;6.980;2022-10-23T12:11:48;16.90;99.90
56184;DHT22;42086;53.170;6.980;2022-10-23T12:16:56;16.90;99.90
56184;DHT22;42086;53.170;6.980;2022-10-23T12:19:28;17.00;99.90
56184;DHT22;42086;53.170;6.980;2022-10-23T12:21:58;16.90;99.90
56184;DHT22;42086;53.170;6.980;2022-10-23T12:24:53;17.00;99.90
56184;DHT22;42086;53.170;6.980;2022-10-23T12:30:22;17.00;99.90
56184;DHT22;42086;53.170;6.980;2022-10-23T12:33:11;17.00;99.90
56184;DHT22;42086;53.170;6.980;2022-10-23T12:38:25;17.10;99.90
56184;DHT22;42086;53.170;6.980;2022-10-23T12:41:20;17.10;99.90
56184;DHT22;42086;53.170;6.980;2022-10-23T12:43:57;17.10;99.90
56184;DHT22;42086;53.170;6.980;2022-10-23T12:46:38;17.20;99.90
56184;DHT22;42086;53.170;6.980;2022-10-23T12:49:17;17.30;99.90
56184;DHT22;42086;53.170;6.980;2022-10-23T12:51:43;17.30;99.90
56184;DHT22;42086;53.170;6.980;2022-10-23T12:54:15;17.40;99.90
56184;DHT22;42086;53.170;6.980;2022-10-23T12:56:41;17.40;99.90
56184;DHT22;42086;53.170;6.980;2022-10-23T12:59:27;17.40;99.90
56184;DHT22;42086;53.170;6.980;2022-10-23T13:01:55;17.40;99.90
56184;DHT22;42086;53.170;6.980;2022-10-23T13:04:30;17.40;99.90
56184;DHT22;42086;53.170;6.980;2022-10-23T13:06:59;17.40;99.90
56184;DHT22;42086;53.170;6.980;2022-10-23T13:09:32;17.40;99.90
56184;DHT22;42086;53.170;6.980;2022-10-23T13:11:59;17.40;99.90
56184;DHT22;42086;53.170;6.980;2022-10-23T13:14:40;17.40;99.90
56184;DHT22;42086;53.170;6.980;2022-10-23T13:17:09;17.40;99.90
56184;DHT22;42086;53.170;6.980;2022-10-23T13:19:35;17.40;99.90
56184;DHT22;42086;53.170;6.980;2022-10-23T13:22:18;17.40;99.90
56184;DHT22;42086;53.170;6.980;2022-10-23T13:24:45;17.50;99.90
56184;DHT22;42086;53.170;6.980;2022-10-23T13:27:25;17.40;99.90
56184;DHT22;42086;53.170;6.980;2022-10-23T13:29:55;17.40;99.90
56184;DHT22;42086;53.170;6.980;2022-10-23T13:32:23;17.40;99.90
56184;DHT22;42086;53.170;6.980;2022-10-23T13:34:51;17.30;99.90
56184;DHT22;42086;53.170;6.980;2022-10-23T13:37:25;17.40;99.90
56184;DHT22;42086;53.170;6.980;2022-10-23T13:40:25;17.40;99.90
56184;DHT22;42086;53.170;6.980;2022-10-23T13:42:53;17.30;99.90
56184;DHT22;42086;53.170;6.980;2022-10-23T13:45:22;17.40;99.90
56184;DHT22;42086;53.170;6.980;2022-10-23T13:47:48;17.40;99.90
56184;DHT22;42086;53.170;6.980;2022-10-23T13:50:14;17.30;99.90
56184;DHT22;42086;53.170;6.980;2022-10-23T13:52:40;17.30;99.90
56184;DHT22;42086;53.170;6.980;2022-10-23T13:55:24;17.30;99.90
56184;DHT22;42086;53.170;6.980;2022-10-23T13:57:50;17.30;99.90
56184;DHT22;42086;53.170;6.980;2022-10-23T14:00:17;17.30;99.90
56184;DHT22;42086;53.170;6.980;2022-10-23T14:02:42;17.20;99.90
56184;DHT22;42086;53.170;6.980;2022-10-23T14:05:09;17.30;99.90
56184;DHT22;42086;53.170;6.980;2022-10-23T14:07:35;17.20;99.90
56184;DHT22;42086;53.170;6.980;2022-10-23T14:10:01;17.10;99.90
56184;DHT22;42086;53.170;6.980;2022-10-23T14:12:26;17.10;99.90
56184;DHT22;42086;53.170;6.980;2022-10-23T14:14:52;17.00;99.90
56184;DHT22;42086;53.170;6.980;2022-10-23T14:17:19;17.00;99.90
56184;DHT22;42086;53.170;6.980;2022-10-23T14:19:45;17.00;99.90
56184;DHT22;42086;53.170;6.980;2022-10-23T14:22:11;16.90;99.90
56184;DHT22;42086;53.170;6.980;2022-10-23T14:24:37;17.00;99.90
56184;DHT22;42086;53.170;6.980;2022-10-23T14:27:03;16.80;99.90
56184;DHT22;42086;53.170;6.980;2022-10-23T14:29:29;16.80;99.90
56184;DHT22;42086;53.170;6.980;2022-10-23T14:31:55;16.90;99.90
56184;DHT22;42086;53.170;6.980;2022-10-23T14:34:20;16.80;99.90
56184;DHT22;42086;53.170;6.980;2022-10-23T14:36:46;16.80;99.90
56184;DHT22;42086;53.170;6.980;2022-10-23T14:39:12;16.80;99.90
56184;DHT22;42086;53.170;6.980;2022-10-23T14:41:37;16.80;99.90
56184;DHT22;42086;53.170;6.980;2022-10-23T14:44:05;16.70;99.90
56184;DHT22;42086;53.170;6.980;2022-10-23T14:46:31;16.70;99.90
56184;DHT22;42086;53.170;6.980;2022-10-23T14:48:57;16.70;99.90
56184;DHT22;42086;53.170;6.980;2022-10-23T14:51:28;16.70;99.90
56184;DHT22;42086;53.170;6.980;2022-10-23T14:53:59;16.70;99.90
56184;DHT22;42086;53.170;6.980;2022-10-23T14:56:27;16.60;99.90
56184;DHT22;42086;53.170;6.980;2022-10-23T14:58:53;16.60;99.90
56184;DHT22;42086;53.170;6.980;2022-10-23T15:01:19;16.60;99.90
56184;DHT22;42086;53.170;6.980;2022-10-23T15:03:45;16.60;99.90
56184;DHT22;42086;53.170;6.980;2022-10-23T15:06:11;16.60;99.90
56184;DHT22;42086;53.170;6.980;2022-10-23T15:08:36;16.50;99.90
56184;DHT22;42086;53.170;6.980;2022-10-23T15:11:03;16.50;99.90
56184;DHT22;42086;53.170;6.980;2022-10-23T15:13:29;16.50;99.90
56184;DHT22;42086;53.170;6.980;2022-10-23T15:16:07;16.50;99.90
56184;DHT22;42086;53.170;6.980;2022-10-23T15:18:33;16.50;99.90
56184;DHT22;42086;53.170;6.980;2022-10-23T15:21:01;16.50;99.90
56184;DHT22;42086;53.170;6.980;2022-10-23T15:23:27;16.40;99.90
56184;DHT22;42086;53.170;6.980;2022-10-23T15:25:55;16.40;99.90
56184;DHT22;42086;53.170;6.980;2022-10-23T15:28:20;16.40;99.90
56184;DHT22;42086;53.170;6.980;2022-10-23T15:30:46;16.40;99.90
56184;DHT22;42086;53.170;6.980;2022-10-23T15:33:12;16.30;99.90
56184;DHT22;42086;53.170;6.980;2022-10-23T15:35:38;16.30;99.90
56184;DHT22;42086;53.170;6.980;2022-10-23T15:38:03;16.30;99.90
56184;DHT22;42086;53.170;6.980;2022-10-23T15:40:29;16.30;99.90
56184;DHT22;42086;53.170;6.980;2022-10-23T15:42:55;16.30;99.90
56184;DHT22;42086;53.170;6.980;2022-10-23T15:45:21;16.20;99.90
56184;DHT22;42086;53.170;6.980;2022-10-23T15:47:46;16.20;99.90
56184;DHT22;42086;53.170;6.980;2022-10-23T15:50:12;16.20;99.90
56184;DHT22;42086;53.170;6.980;2022-10-23T15:52:38;16.10;99.90
56184;DHT22;42086;53.170;6.980;2022-10-23T15:55:04;16.10;99.90
56184;DHT22;42086;53.170;6.980;2022-10-23T15:57:30;16.10;99.90
56184;DHT22;42086;53.170;6.980;2022-10-23T15:59:56;16.10;99.90
56184;DHT22;42086;53.170;6.980;2022-10-23T16:02:22;16.10;99.90
56184;DHT22;42086;53.170;6.980;2022-10-23T16:04:48;16.10;99.90
56184;DHT22;42086;53.170;6.980;2022-10-23T16:07:14;16.00;99.90
56184;DHT22;42086;53.170;6.980;2022-10-23T16:09:39;16.00;99.90
56184;DHT22;42086;53.170;6.980;2022-10-23T16:12:05;15.90;99.90
56184;DHT22;42086;53.170;6.980;2022-10-23T16:14:31;15.90;99.90
56184;DHT22;42086;53.170;6.980;2022-10-23T16:16:57;15.80;99.90
56184;DHT22;42086;53.170;6.980;2022-10-23T16:19:22;15.80;99.90
56184;DHT22;42086;53.170;6.980;2022-10-23T16:21:48;15.80;99.90
56184;DHT22;42086;53.170;6.980;2022-10-23T16:24:14;15.70;99.90
56184;DHT22;42086;53.170;6.980;2022-10-23T16:26:40;15.70;99.90
56184;DHT22;42086;53.170;6.980;2022-10-23T16:29:07;15.70;99.90
56184;DHT22;42086;53.170;6.980;2022-10-23T16:31:33;15.60;99.90
56184;DHT22;42086;53.170;6.980;2022-10-23T16:34:01;15.60;99.90
56184;DHT22;42086;53.170;6.980;2022-10-23T16:36:27;15.60;99.90
56184;DHT22;42086;53.170;6.980;2022-10-23T16:38:53;15.60;99.90
56184;DHT22;42086;53.170;6.980;2022-10-23T16:41:19;15.60;99.90
56184;DHT22;42086;53.170;6.980;2022-10-23T16:43:45;15.60;99.90
56184;DHT22;42086;53.170;6.980;2022-10-23T16:46:13;15.50;99.90
56184;DHT22;42086;53.170;6.980;2022-10-23T16:48:40;15.60;99.90
56184;DHT22;42086;53.170;6.980;2022-10-23T16:51:13;15.60;99.90
56184;DHT22;42086;53.170;6.980;2022-10-23T16:53:41;15.60;99.90
56184;DHT22;42086;53.170;6.980;2022-10-23T16:56:08;15.50;99.90
56184;DHT22;42086;53.170;6.980;2022-10-23T16:58:34;15.50;99.90
56184;DHT22;42086;53.170;6.980;2022-10-23T17:01:05;15.50;99.90
56184;DHT22;42086;53.170;6.980;2022-10-23T17:03:35;15.50;99.90
56184;DHT22;42086;53.170;6.980;2022-10-23T17:06:03;15.50;99.90
56184;DHT22;42086;53.170;6.980;2022-10-23T17:08:29;15.40;99.90
56184;DHT22;42086;53.170;6.980;2022-10-23T17:11:04;15.40;99.90
56184;DHT22;42086;53.170;6.980;2022-10-23T17:13:30;15.30;99.90
56184;DHT22;42086;53.170;6.980;2022-10-23T17:16:24;15.30;99.90
56184;DHT22;42086;53.170;6.980;2022-10-23T17:18:50;15.30;99.90
56184;DHT22;42086;53.170;6.980;2022-10-23T17:21:18;15.20;99.90
56184;DHT22;42086;53.170;6.980;2022-10-23T17:23:45;15.20;99.90
56184;DHT22;42086;53.170;6.980;2022-10-23T17:26:13;15.10;99.90
56184;DHT22;42086;53.170;6.980;2022-10-23T17:28:39;15.20;99.90
56184;DHT22;42086;53.170;6.980;2022-10-23T17:31:23;15.20;99.90